Time;durP1;ratioP1;P1;durP2;ratioP2;P2;SDS_P1;SDS_P2;PMS_P1;PMS_P2;Temp;Humidity;BMP_temperature;BMP_pressure;BME280_temperature;BME280_humidity;BME280_pressure;Samples;Min_cycle;Max_cycle;Signal;HPM_P1;HPM_P2
2022/11/30 00:01:31;;;;;;;;;9.50;9.50;;;;;;;;114837;1203;25330;-57
2022/11/30 00:03:59;;;;;;;;;8.33;8.00;;;;;;;;114857;1203;25183;-56
2022/11/30 00:06:28;;;;;;;;;8.00;6.00;;;;;;;;114895;1203;25408;-56
2022/11/30 00:08:57;;;;;;;;;11.00;7.00;;;;;;;;114857;1208;24808;-56
2022/11/30 00:11:27;;;;;;;;;15.00;10.00;;;;;;;;114797;1208;25243;-56
2022/11/30 00:13:55;;;;;;;;;8.00;7.67;;;;;;;;114869;1200;25133;-53
2022/11/30 00:16:26;;;;;;;;;10.00;10.00;;;;;;;;114929;1193;25339;-55
2022/11/30 00:18:54;;;;;;;;;9.00;8.00;;;;;;;;114863;1206;25238;-55
2022/11/30 00:21:23;;;;;;;;;10.50;10.50;;;;;;;;114947;1199;26032;-53
2022/11/30 00:23:51;;;;;;;;;8.00;7.00;;;;;;;;114970;1208;24942;-53
2022/11/30 00:26:21;;;;;;;;;11.00;9.00;;;;;;;;114910;1203;25123;-53
2022/11/30 00:28:50;;;;;;;;;9.33;7.67;;;;;;;;114916;1203;25138;-53
2022/11/30 00:31:18;;;;;;;;;8.00;7.00;;;;;;;;114935;1204;25712;-55
2022/11/30 00:33:47;;;;;;;;;11.00;9.00;;;;;;;;114953;1208;25321;-55
2022/11/30 00:36:18;;;;;;;;;9.00;9.00;;;;;;;;114941;1204;25139;-55
2022/11/30 00:38:47;;;;;;;;;13.33;11.00;;;;;;;;114873;1198;24916;-55
2022/11/30 00:41:16;;;;;;;;;7.67;6.33;;;;;;;;114896;1200;25116;-55
2022/11/30 00:43:45;;;;;;;;;12.00;8.00;;;;;;;;114970;1199;25111;-55
2022/11/30 00:46:14;;;;;;;;;8.00;8.00;;;;;;;;114958;1196;25634;-55
2022/11/30 00:48:42;;;;;;;;;12.00;8.00;;;;;;;;114953;1207;25561;-55
2022/11/30 00:51:11;;;;;;;;;7.00;7.00;;;;;;;;114935;1204;25051;-53
2022/11/30 00:53:40;;;;;;;;;7.50;7.50;;;;;;;;114936;1203;25102;-55
2022/11/30 00:56:09;;;;;;;;;9.00;7.50;;;;;;;;114907;1197;24734;-55
2022/11/30 00:58:38;;;;;;;;;8.50;6.00;;;;;;;;114855;1204;26089;-55
2022/11/30 01:01:07;;;;;;;;;11.00;10.00;;;;;;;;114940;1202;24886;-55
2022/11/30 01:03:36;;;;;;;;;8.00;7.00;;;;;;;;114870;1204;25620;-55
2022/11/30 01:06:07;;;;;;;;;11.00;7.00;;;;;;;;114935;1202;24921;-53
2022/11/30 01:08:35;;;;;;;;;9.00;7.00;;;;;;;;114907;1206;25450;-55
2022/11/30 01:11:11;;;;;;;;;7.00;7.00;;;;;;;;114948;1203;25474;-55
2022/11/30 01:13:41;;;;;;;;;7.33;6.67;;;;;;;;114928;1208;24725;-55
2022/11/30 01:16:17;;;;;;;;;7.00;7.00;;;;;;;;114931;1208;25471;-55
2022/11/30 01:18:46;;;;;;;;;8.50;6.00;;;;;;;;114884;1200;25486;-55
2022/11/30 01:21:17;;;;;;;;;12.00;7.00;;;;;;;;114983;1194;25318;-55
2022/11/30 01:23:46;;;;;;;;;11.00;7.50;;;;;;;;114878;1204;24834;-55
2022/11/30 01:26:15;;;;;;;;;8.00;7.00;;;;;;;;114935;1197;25265;-55
2022/11/30 01:28:45;;;;;;;;;8.00;7.75;;;;;;;;114925;1198;25609;-55
2022/11/30 01:31:13;;;;;;;;;8.50;8.50;;;;;;;;114828;1200;25194;-56
2022/11/30 01:33:42;;;;;;;;;8.00;7.00;;;;;;;;114846;1196;25260;-61
2022/11/30 01:36:13;;;;;;;;;9.50;7.50;;;;;;;;114956;1199;26208;-56
2022/11/30 01:38:44;;;;;;;;;8.00;7.50;;;;;;;;114890;1201;25518;-53
2022/11/30 01:41:16;;;;;;;;;7.00;7.00;;;;;;;;114931;1195;25411;-54
2022/11/30 01:43:50;;;;;;;;;6.50;6.50;;;;;;;;114837;1207;25068;-53
2022/11/30 01:46:42;;;;;;;;;9.00;9.00;;;;;;;;114870;1200;25185;-53
2022/11/30 01:49:18;;;;;;;;;7.00;7.00;;;;;;;;114891;1203;25147;-53
2022/11/30 01:51:49;;;;;;;;;9.00;6.00;;;;;;;;114903;1199;25601;-55
2022/11/30 01:54:22;;;;;;;;;8.00;8.00;;;;;;;;114915;1207;25669;-56
2022/11/30 01:56:55;;;;;;;;;9.50;6.00;;;;;;;;114934;1197;25003;-55
2022/11/30 01:59:24;;;;;;;;;5.00;3.00;;;;;;;;114896;1203;25364;-55
2022/11/30 02:01:54;;;;;;;;;9.00;8.00;;;;;;;;114828;1206;26388;-55
2022/11/30 02:04:29;;;;;;;;;7.00;7.00;;;;;;;;114917;1203;25064;-55
2022/11/30 02:06:58;;;;;;;;;5.00;5.00;;;;;;;;114830;1205;25666;-55
2022/11/30 02:09:28;;;;;;;;;7.00;6.00;;;;;;;;114908;1203;25368;-56
2022/11/30 02:11:57;;;;;;;;;11.50;7.50;;;;;;;;114919;1200;25274;-56
2022/11/30 02:14:38;;;;;;;;;7.00;7.00;;;;;;;;114840;1201;25349;-54
2022/11/30 02:17:39;;;;;;;;;7.00;7.00;;;;;;;;114904;1206;25007;-55
2022/11/30 02:20:37;;;;;;;;;6.00;4.50;;;;;;;;114869;1203;25267;-56
2022/11/30 02:23:21;;;;;;;;;8.00;6.00;;;;;;;;114892;1203;24690;-56
2022/11/30 02:26:08;;;;;;;;;8.00;6.00;;;;;;;;114901;1206;25403;-56
2022/11/30 02:29:03;;;;;;;;;6.00;6.00;;;;;;;;114900;1200;24704;-55
2022/11/30 02:32:06;;;;;;;;;8.00;8.00;;;;;;;;114902;1208;24864;-56
2022/11/30 02:34:36;;;;;;;;;6.00;6.00;;;;;;;;114842;1208;25699;-56
2022/11/30 02:37:06;;;;;;;;;6.00;6.00;;;;;;;;114955;1198;25229;-56
2022/11/30 02:39:34;;;;;;;;;3.33;3.33;;;;;;;;114865;1208;25314;-56
2022/11/30 02:42:03;;;;;;;;;5.00;5.00;;;;;;;;114933;1197;27366;-56
2022/11/30 02:44:31;;;;;;;;;8.00;7.00;;;;;;;;114901;1208;25432;-56
2022/11/30 02:47:37;;;;;;;;;7.00;6.00;;;;;;;;114881;1204;28531;-56
2022/11/30 02:50:20;;;;;;;;;9.00;7.00;;;;;;;;114951;1208;25025;-56
2022/11/30 02:52:49;;;;;;;;;5.00;5.00;;;;;;;;114912;1200;25043;-56
2022/11/30 02:55:19;;;;;;;;;4.00;3.00;;;;;;;;114883;1200;25220;-56
2022/11/30 02:57:47;;;;;;;;;4.00;4.00;;;;;;;;114860;1203;24717;-56
2022/11/30 03:00:16;;;;;;;;;5.00;4.00;;;;;;;;114797;1203;25405;-56
2022/11/30 03:02:44;;;;;;;;;7.00;7.00;;;;;;;;114972;1208;25541;-56
2022/11/30 03:05:13;;;;;;;;;4.50;4.50;;;;;;;;114930;1203;24943;-56
2022/11/30 03:07:41;;;;;;;;;7.00;5.00;;;;;;;;114955;1203;25394;-56
2022/11/30 03:10:10;;;;;;;;;7.00;7.00;;;;;;;;114907;1206;25155;-55
2022/11/30 03:12:38;;;;;;;;;6.50;5.50;;;;;;;;114906;1199;25154;-55
2022/11/30 03:15:07;;;;;;;;;7.00;6.00;;;;;;;;114811;1200;25662;-56
2022/11/30 03:17:38;;;;;;;;;5.50;5.50;;;;;;;;114918;1206;25312;-55
2022/11/30 03:20:07;;;;;;;;;6.50;6.00;;;;;;;;114931;1203;25151;-56
2022/11/30 03:22:36;;;;;;;;;6.00;5.50;;;;;;;;114897;1197;25314;-56
2022/11/30 03:25:04;;;;;;;;;8.00;5.00;;;;;;;;114953;1203;25037;-55
2022/11/30 03:27:33;;;;;;;;;3.00;3.00;;;;;;;;114918;1199;25549;-55
2022/11/30 03:30:01;;;;;;;;;5.33;5.33;;;;;;;;114917;1196;25540;-56
2022/11/30 03:32:30;;;;;;;;;8.00;6.00;;;;;;;;114958;1203;25008;-56
2022/11/30 03:34:58;;;;;;;;;7.00;6.25;;;;;;;;114917;1202;24734;-56
2022/11/30 03:37:27;;;;;;;;;7.00;5.67;;;;;;;;114828;1204;25206;-56
2022/11/30 03:39:55;;;;;;;;;6.00;4.00;;;;;;;;114879;1208;25633;-56
2022/11/30 03:42:25;;;;;;;;;8.00;7.00;;;;;;;;114886;1197;25601;-56
2022/11/30 03:44:54;;;;;;;;;8.00;7.00;;;;;;;;114916;1200;25731;-55
2022/11/30 03:47:22;;;;;;;;;7.00;7.00;;;;;;;;114843;1200;24815;-54
2022/11/30 03:49:50;;;;;;;;;4.00;4.00;;;;;;;;114864;1206;25405;-57
2022/11/30 03:52:19;;;;;;;;;9.00;8.00;;;;;;;;114895;1208;25119;-55
2022/11/30 03:54:47;;;;;;;;;7.33;6.67;;;;;;;;114832;1204;25603;-55
2022/11/30 03:57:16;;;;;;;;;6.00;6.00;;;;;;;;114870;1200;25188;-55
2022/11/30 03:59:44;;;;;;;;;6.00;5.00;;;;;;;;114931;1201;26454;-55
2022/11/30 04:02:13;;;;;;;;;7.00;6.00;;;;;;;;114924;1202;25371;-55
2022/11/30 04:04:41;;;;;;;;;7.50;5.00;;;;;;;;114944;1197;25133;-55
2022/11/30 04:07:09;;;;;;;;;6.50;3.50;;;;;;;;114918;1203;25031;-54
2022/11/30 04:09:38;;;;;;;;;8.00;7.00;;;;;;;;114923;1206;25525;-53
2022/11/30 04:12:06;;;;;;;;;5.00;5.00;;;;;;;;114943;1203;24990;-55
2022/11/30 04:14:35;;;;;;;;;6.00;6.00;;;;;;;;114913;1203;25496;-56
2022/11/30 04:17:04;;;;;;;;;7.00;5.50;;;;;;;;114885;1200;25036;-56
2022/11/30 04:19:32;;;;;;;;;8.00;6.00;;;;;;;;114787;1203;26273;-56
2022/11/30 04:22:00;;;;;;;;;6.00;5.00;;;;;;;;114882;1200;25723;-55
2022/11/30 04:24:29;;;;;;;;;6.50;6.00;;;;;;;;114817;1206;25654;-56
2022/11/30 04:26:57;;;;;;;;;5.00;5.00;;;;;;;;114857;1203;26115;-56
2022/11/30 04:29:26;;;;;;;;;7.67;6.00;;;;;;;;114919;1208;24683;-56
2022/11/30 04:31:54;;;;;;;;;6.00;6.00;;;;;;;;114907;1200;25123;-54
2022/11/30 04:34:22;;;;;;;;;5.00;5.00;;;;;;;;114957;1197;26167;-54
2022/11/30 04:36:51;;;;;;;;;6.00;5.00;;;;;;;;114900;1200;26175;-55
2022/11/30 04:39:26;;;;;;;;;8.33;6.33;;;;;;;;114961;1203;25221;-55
2022/11/30 04:41:55;;;;;;;;;5.00;5.00;;;;;;;;114963;1200;26215;-55
2022/11/30 04:44:23;;;;;;;;;5.00;5.00;;;;;;;;114956;1208;25588;-55
2022/11/30 04:46:52;;;;;;;;;8.50;6.50;;;;;;;;114946;1200;25731;-55
2022/11/30 04:49:20;;;;;;;;;6.33;5.33;;;;;;;;114945;1204;24829;-55
2022/11/30 04:51:49;;;;;;;;;7.00;7.00;;;;;;;;114903;1205;25450;-55
2022/11/30 04:54:17;;;;;;;;;9.00;5.50;;;;;;;;114894;1200;25589;-55
2022/11/30 04:56:45;;;;;;;;;7.00;7.00;;;;;;;;114940;1197;24678;-56
2022/11/30 04:59:14;;;;;;;;;6.00;5.00;;;;;;;;114868;1200;25357;-55
2022/11/30 05:01:42;;;;;;;;;5.50;5.50;;;;;;;;114883;1208;25126;-55
2022/11/30 05:04:11;;;;;;;;;4.33;4.33;;;;;;;;114900;1208;25355;-55
2022/11/30 05:06:39;;;;;;;;;6.00;6.00;;;;;;;;114869;1196;25335;-55
2022/11/30 05:09:09;;;;;;;;;5.00;4.00;;;;;;;;114916;1202;24887;-58
2022/11/30 05:11:37;;;;;;;;;6.00;5.00;;;;;;;;114945;1204;25104;-54
2022/11/30 05:14:05;;;;;;;;;7.00;7.00;;;;;;;;114849;1206;24684;-55
2022/11/30 05:16:34;;;;;;;;;5.00;5.00;;;;;;;;114873;1206;24795;-62
2022/11/30 05:19:03;;;;;;;;;8.00;6.00;;;;;;;;114892;1200;25484;-57
2022/11/30 05:21:31;;;;;;;;;3.33;3.33;;;;;;;;114887;1199;25600;-58
2022/11/30 05:23:59;;;;;;;;;6.75;5.50;;;;;;;;114963;1206;24987;-55
2022/11/30 05:26:28;;;;;;;;;7.00;7.00;;;;;;;;114898;1200;25553;-53
2022/11/30 05:28:56;;;;;;;;;5.00;4.00;;;;;;;;114896;1200;25514;-55
2022/11/30 05:31:25;;;;;;;;;3.00;3.00;;;;;;;;114930;1203;25611;-54
2022/11/30 05:33:53;;;;;;;;;7.00;5.00;;;;;;;;114924;1200;25651;-55
2022/11/30 05:36:22;;;;;;;;;5.00;5.00;;;;;;;;114929;1203;25468;-55
2022/11/30 05:38:51;;;;;;;;;5.00;4.50;;;;;;;;114932;1199;25623;-54
2022/11/30 05:41:19;;;;;;;;;7.50;5.00;;;;;;;;114758;1204;25197;-55
2022/11/30 05:43:48;;;;;;;;;5.00;5.00;;;;;;;;114841;1204;25454;-55
2022/11/30 05:46:16;;;;;;;;;6.00;5.00;;;;;;;;114934;1208;25309;-55
2022/11/30 05:48:44;;;;;;;;;6.00;4.50;;;;;;;;114940;1204;24832;-55
2022/11/30 05:51:15;;;;;;;;;6.00;6.00;;;;;;;;114891;1208;25678;-53
2022/11/30 05:53:44;;;;;;;;;4.00;3.33;;;;;;;;114925;1207;25326;-53
2022/11/30 05:56:18;;;;;;;;;6.33;6.33;;;;;;;;114853;1208;25089;-55
2022/11/30 05:58:47;;;;;;;;;4.00;4.00;;;;;;;;114881;1200;25287;-55
2022/11/30 06:01:26;;;;;;;;;6.00;5.00;;;;;;;;114902;1197;25538;-55
2022/11/30 06:03:55;;;;;;;;;7.00;5.00;;;;;;;;114937;1198;25069;-55
2022/11/30 06:06:23;;;;;;;;;8.00;6.50;;;;;;;;114939;1203;25150;-55
2022/11/30 06:08:53;;;;;;;;;7.00;5.00;;;;;;;;114930;1208;25221;-53
2022/11/30 06:11:23;;;;;;;;;7.00;5.00;;;;;;;;114909;1197;25085;-55
2022/11/30 06:13:52;;;;;;;;;7.00;5.00;;;;;;;;114937;1208;24814;-54
2022/11/30 06:16:20;;;;;;;;;7.50;5.50;;;;;;;;114922;1200;25700;-55
2022/11/30 06:18:48;;;;;;;;;7.00;6.00;;;;;;;;114950;1208;25099;-54
2022/11/30 06:21:17;;;;;;;;;7.00;5.00;;;;;;;;114988;1206;25266;-54
2022/11/30 06:23:51;;;;;;;;;6.50;6.50;;;;;;;;114918;1200;25424;-54
2022/11/30 06:26:20;;;;;;;;;4.33;4.33;;;;;;;;114943;1203;25143;-54
2022/11/30 06:28:48;;;;;;;;;5.00;4.33;;;;;;;;114933;1203;24821;-54
2022/11/30 06:31:17;;;;;;;;;7.00;7.00;;;;;;;;114881;1200;25410;-54
2022/11/30 06:33:45;;;;;;;;;6.00;3.00;;;;;;;;114863;1208;25184;-54
2022/11/30 06:36:19;;;;;;;;;4.00;4.00;;;;;;;;114924;1204;25515;-54
2022/11/30 06:38:49;;;;;;;;;7.00;5.00;;;;;;;;114923;1206;25051;-54
2022/11/30 06:41:17;;;;;;;;;7.00;6.00;;;;;;;;114945;1199;26067;-55
2022/11/30 06:43:46;;;;;;;;;5.00;5.00;;;;;;;;114923;1200;25273;-55
2022/11/30 06:46:14;;;;;;;;;7.00;6.00;;;;;;;;114878;1203;26288;-53
2022/11/30 06:48:47;;;;;;;;;6.33;5.33;;;;;;;;114961;1199;24958;-55
2022/11/30 06:51:16;;;;;;;;;2.00;2.00;;;;;;;;114935;1203;25193;-55
2022/11/30 06:53:45;;;;;;;;;9.00;6.00;;;;;;;;114967;1200;25262;-55
2022/11/30 06:56:13;;;;;;;;;7.33;6.00;;;;;;;;114958;1203;25598;-54
2022/11/30 06:58:42;;;;;;;;;8.00;7.00;;;;;;;;114893;1206;24984;-53
2022/11/30 07:01:13;;;;;;;;;5.00;4.50;;;;;;;;114989;1208;24719;-55
2022/11/30 07:03:41;;;;;;;;;7.00;7.00;;;;;;;;114914;1200;24900;-55
2022/11/30 07:06:11;;;;;;;;;6.00;6.00;;;;;;;;114978;1200;25411;-55
2022/11/30 07:08:41;;;;;;;;;6.67;6.33;;;;;;;;114925;1203;25141;-55
2022/11/30 07:11:10;;;;;;;;;8.33;6.00;;;;;;;;114890;1203;25041;-55
2022/11/30 07:13:39;;;;;;;;;8.00;5.00;;;;;;;;114950;1200;25428;-55
2022/11/30 07:16:09;;;;;;;;;5.50;5.50;;;;;;;;114919;1207;25177;-53
2022/11/30 07:18:38;;;;;;;;;9.50;7.50;;;;;;;;114898;1195;25352;-53
2022/11/30 07:21:06;;;;;;;;;7.67;6.67;;;;;;;;114865;1206;24805;-55
2022/11/30 07:26:24;;;;;;;;;7.00;5.00;;;;;;;;114766;1200;25889;-55
2022/11/30 07:28:53;;;;;;;;;6.50;6.00;;;;;;;;114859;1203;25025;-55
2022/11/30 07:31:27;;;;;;;;;7.33;6.67;;;;;;;;114956;1200;25699;-55
2022/11/30 07:33:57;;;;;;;;;7.00;6.00;;;;;;;;114874;1200;24932;-55
2022/11/30 07:36:26;;;;;;;;;7.00;6.50;;;;;;;;114914;1200;25411;-55
2022/11/30 07:38:54;;;;;;;;;6.00;5.00;;;;;;;;114933;1199;24984;-55
2022/11/30 07:41:23;;;;;;;;;9.33;7.67;;;;;;;;114922;1203;25367;-55
2022/11/30 07:43:51;;;;;;;;;6.00;6.00;;;;;;;;114879;1203;25447;-55
2022/11/30 07:46:20;;;;;;;;;7.00;5.50;;;;;;;;114929;1206;25532;-55
2022/11/30 07:48:48;;;;;;;;;6.00;6.00;;;;;;;;114821;1200;25250;-55
2022/11/30 07:51:21;;;;;;;;;8.50;6.50;;;;;;;;114888;1203;24773;-55
2022/11/30 07:53:50;;;;;;;;;7.67;5.00;;;;;;;;114899;1195;25721;-55
2022/11/30 07:56:19;;;;;;;;;8.00;6.50;;;;;;;;114863;1200;25651;-55
2022/11/30 07:58:50;;;;;;;;;6.50;6.00;;;;;;;;114900;1199;25243;-55
2022/11/30 08:01:21;;;;;;;;;9.00;9.00;;;;;;;;114862;1199;24746;-55
2022/11/30 08:03:50;;;;;;;;;6.50;6.50;;;;;;;;114969;1200;25329;-55
2022/11/30 08:06:23;;;;;;;;;10.00;8.00;;;;;;;;114908;1197;25717;-55
2022/11/30 08:08:53;;;;;;;;;9.33;6.67;;;;;;;;114886;1203;24689;-55
2022/11/30 08:11:24;;;;;;;;;6.33;4.67;;;;;;;;114831;1199;25400;-58
2022/11/30 08:13:53;;;;;;;;;9.50;7.00;;;;;;;;114833;1200;27057;-59
2022/11/30 08:16:24;;;;;;;;;7.33;5.00;;;;;;;;114883;1203;25605;-58
2022/11/30 08:18:55;;;;;;;;;6.00;5.00;;;;;;;;114850;1200;25208;-58
2022/11/30 08:21:23;;;;;;;;;3.00;3.00;;;;;;;;114808;1206;25337;-59
2022/11/30 08:23:56;;;;;;;;;6.00;5.00;;;;;;;;114919;1201;25040;-57
2022/11/30 08:26:31;;;;;;;;;6.00;5.00;;;;;;;;114783;1203;25199;-56
2022/11/30 08:29:00;;;;;;;;;7.50;4.50;;;;;;;;114772;1201;25276;-56
2022/11/30 08:31:34;;;;;;;;;5.00;5.00;;;;;;;;114696;1197;24865;-60
2022/11/30 08:34:10;;;;;;;;;3.00;2.00;;;;;;;;114773;1200;24730;-62
2022/11/30 08:36:40;;;;;;;;;7.00;6.00;;;;;;;;114857;1206;24997;-62
2022/11/30 08:39:11;;;;;;;;;4.00;4.00;;;;;;;;114824;1203;25945;-61
2022/11/30 08:41:39;;;;;;;;;5.00;5.00;;;;;;;;114855;1206;25248;-60
2022/11/30 08:44:08;;;;;;;;;4.00;4.00;;;;;;;;114840;1208;25128;-60
2022/11/30 08:46:37;;;;;;;;;5.00;4.00;;;;;;;;114773;1203;24679;-60
2022/11/30 08:49:22;;;;;;;;;6.50;5.00;;;;;;;;114865;1208;25752;-61
2022/11/30 08:51:54;;;;;;;;;5.00;3.00;;;;;;;;114834;1200;24742;-59
2022/11/30 08:54:44;;;;;;;;;4.00;4.00;;;;;;;;114636;1199;26387;-61
2022/11/30 08:57:16;;;;;;;;;4.67;4.33;;;;;;;;114820;1203;25414;-60
2022/11/30 08:59:45;;;;;;;;;4.67;4.67;;;;;;;;114878;1204;25226;-61
2022/11/30 09:02:16;;;;;;;;;4.00;4.00;;;;;;;;114682;1196;25386;-60
2022/11/30 09:04:47;;;;;;;;;7.00;5.00;;;;;;;;114858;1199;25103;-64
2022/11/30 09:07:36;;;;;;;;;5.67;5.00;;;;;;;;114850;1200;24647;-62
2022/11/30 09:10:05;;;;;;;;;6.00;5.00;;;;;;;;114881;1203;24969;-70
2022/11/30 09:12:36;;;;;;;;;6.33;6.00;;;;;;;;114948;1203;25312;-60
2022/11/30 09:15:05;;;;;;;;;3.50;3.50;;;;;;;;114796;1203;24961;-60
2022/11/30 09:17:33;;;;;;;;;7.00;4.67;;;;;;;;114833;1202;25409;-60
2022/11/30 09:20:02;;;;;;;;;7.00;6.00;;;;;;;;114867;1200;24651;-61
2022/11/30 09:22:31;;;;;;;;;5.00;5.00;;;;;;;;114743;1208;25206;-62
2022/11/30 09:24:59;;;;;;;;;5.00;5.00;;;;;;;;114765;1205;25311;-59
2022/11/30 09:27:31;;;;;;;;;4.00;3.00;;;;;;;;114592;1199;25018;-59
2022/11/30 09:29:59;;;;;;;;;10.00;4.00;;;;;;;;114603;1197;24727;-61
2022/11/30 09:32:28;;;;;;;;;5.00;5.00;;;;;;;;114703;1200;25223;-59
2022/11/30 09:34:56;;;;;;;;;8.50;6.00;;;;;;;;114936;1200;24906;-61
2022/11/30 09:37:25;;;;;;;;;7.00;6.67;;;;;;;;114752;1199;24816;-62
2022/11/30 09:39:53;;;;;;;;;6.00;6.00;;;;;;;;114817;1206;25118;-61
2022/11/30 09:43:00;;;;;;;;;7.00;5.00;;;;;;;;114877;1196;25338;-66
2022/11/30 09:45:31;;;;;;;;;7.00;5.00;;;;;;;;114844;1203;26014;-60
2022/11/30 09:48:20;;;;;;;;;5.00;5.00;;;;;;;;114768;1203;25719;-61
2022/11/30 09:50:50;;;;;;;;;6.67;5.00;;;;;;;;114856;1196;25379;-65
2022/11/30 09:53:26;;;;;;;;;7.00;4.50;;;;;;;;114876;1203;25132;-60
2022/11/30 09:55:58;;;;;;;;;9.00;8.00;;;;;;;;114825;1205;24747;-60
2022/11/30 09:58:41;;;;;;;;;12.33;7.67;;;;;;;;114860;1200;25454;-59
2022/11/30 10:01:16;;;;;;;;;11.00;8.00;;;;;;;;114897;1208;25423;-59
2022/11/30 10:03:45;;;;;;;;;15.50;8.00;;;;;;;;114666;1199;24700;-59
2022/11/30 10:06:42;;;;;;;;;11.00;8.00;;;;;;;;114850;1201;25724;-60
2022/11/30 10:09:32;;;;;;;;;11.50;7.50;;;;;;;;114815;1203;24955;-59
2022/11/30 10:12:26;;;;;;;;;14.00;11.50;;;;;;;;114830;1203;24877;-59
2022/11/30 10:15:16;;;;;;;;;15.50;10.50;;;;;;;;116747;1203;25435;-60
2022/11/30 10:17:56;;;;;;;;;11.33;8.67;;;;;;;;116863;1194;25287;-60
2022/11/30 10:20:33;;;;;;;;;13.00;8.75;;;;;;;;116766;1208;24914;-61
2022/11/30 10:23:19;;;;;;;;;8.50;8.00;;;;;;;;116727;1208;24721;-60
2022/11/30 10:25:56;;;;;;;;;15.00;12.00;;;;;;;;116812;1200;25441;-60
2022/11/30 10:28:43;;;;;;;;;13.00;9.00;;;;;;;;117019;1199;25909;-60
2022/11/30 10:31:16;;;;;;;;;15.50;9.50;;;;;;;;116766;1194;24904;-60
2022/11/30 10:33:48;;;;;;;;;8.33;8.33;;;;;;;;116635;1200;26063;-60
2022/11/30 10:36:38;;;;;;;;;13.00;7.00;;;;;;;;114905;1200;26187;-60
2022/11/30 10:39:50;;;;;;;;;12.00;9.50;;;;;;;;114764;1199;25529;-60
2022/11/30 10:42:25;;;;;;;;;14.50;8.50;;;;;;;;114758;1208;25659;-59
2022/11/30 10:45:00;;;;;;;;;9.67;8.00;;;;;;;;114930;1195;25188;-59
2022/11/30 10:47:35;;;;;;;;;12.50;8.00;;;;;;;;114905;1196;25594;-60
2022/11/30 10:50:05;;;;;;;;;13.50;8.50;;;;;;;;114894;1208;25154;-59
2022/11/30 10:52:47;;;;;;;;;15.00;10.00;;;;;;;;114891;1207;25264;-60
2022/11/30 10:55:40;;;;;;;;;12.50;8.50;;;;;;;;114946;1206;25498;-60
2022/11/30 10:58:37;;;;;;;;;11.00;10.00;;;;;;;;114900;1206;24949;-61
2022/11/30 11:01:27;;;;;;;;;14.50;9.00;;;;;;;;114742;1206;24810;-58
2022/11/30 11:04:17;;;;;;;;;14.00;7.00;;;;;;;;114632;1196;25193;-60
2022/11/30 11:06:56;;;;;;;;;9.00;7.50;;;;;;;;114851;1200;25658;-60
2022/11/30 11:09:35;;;;;;;;;8.00;6.00;;;;;;;;114815;1208;24946;-61
2022/11/30 11:12:05;;;;;;;;;10.00;8.50;;;;;;;;114855;1206;24727;-61
2022/11/30 11:14:34;;;;;;;;;13.00;9.50;;;;;;;;114852;1208;24812;-61
2022/11/30 11:17:23;;;;;;;;;7.00;6.00;;;;;;;;114856;1203;24982;-61
2022/11/30 11:19:51;;;;;;;;;9.00;7.00;;;;;;;;114942;1197;25774;-63
2022/11/30 11:22:22;;;;;;;;;8.50;6.50;;;;;;;;114949;1200;25404;-62
2022/11/30 11:25:18;;;;;;;;;11.50;7.00;;;;;;;;114819;1200;24914;-63
2022/11/30 11:27:52;;;;;;;;;9.00;8.00;;;;;;;;114810;1199;24848;-64
2022/11/30 11:30:28;;;;;;;;;7.00;6.00;;;;;;;;114901;1206;25409;-63
2022/11/30 11:32:57;;;;;;;;;10.00;9.00;;;;;;;;114859;1203;25647;-61
2022/11/30 11:35:45;;;;;;;;;10.00;6.00;;;;;;;;114891;1208;24903;-61
2022/11/30 11:38:26;;;;;;;;;15.00;9.00;;;;;;;;114826;1204;25326;-62
2022/11/30 11:40:59;;;;;;;;;9.00;7.00;;;;;;;;114899;1200;25598;-61
2022/11/30 11:43:33;;;;;;;;;11.00;6.00;;;;;;;;114850;1196;25652;-62
2022/11/30 11:46:12;;;;;;;;;4.50;4.00;;;;;;;;114890;1199;25082;-63
2022/11/30 11:48:47;;;;;;;;;9.00;7.00;;;;;;;;114922;1208;24878;-60
2022/11/30 11:51:37;;;;;;;;;13.00;9.00;;;;;;;;114835;1206;25179;-59
2022/11/30 11:54:17;;;;;;;;;9.00;7.00;;;;;;;;114779;1206;25388;-59
2022/11/30 11:56:46;;;;;;;;;11.00;9.00;;;;;;;;114849;1204;25180;-59
2022/11/30 11:59:39;;;;;;;;;5.33;4.00;;;;;;;;114908;1200;25692;-60
2022/11/30 12:02:20;;;;;;;;;9.00;5.00;;;;;;;;114862;1208;25221;-60
2022/11/30 12:04:56;;;;;;;;;9.00;6.00;;;;;;;;114922;1203;25177;-60
2022/11/30 12:07:28;;;;;;;;;7.50;6.50;;;;;;;;114889;1208;24933;-59
2022/11/30 12:10:30;;;;;;;;;8.67;7.67;;;;;;;;114800;1200;24985;-60
2022/11/30 12:13:21;;;;;;;;;14.00;7.00;;;;;;;;114888;1200;24932;-61
2022/11/30 12:16:13;;;;;;;;;8.00;7.00;;;;;;;;114864;1206;25625;-61
2022/11/30 12:18:44;;;;;;;;;7.50;6.50;;;;;;;;115008;1199;25188;-60
2022/11/30 12:21:17;;;;;;;;;12.00;8.00;;;;;;;;114872;1196;25554;-59
2022/11/30 12:23:57;;;;;;;;;11.00;8.50;;;;;;;;114845;1206;25154;-59
2022/11/30 12:26:37;;;;;;;;;10.00;8.00;;;;;;;;114915;1208;25510;-60
2022/11/30 12:29:33;;;;;;;;;13.00;9.00;;;;;;;;114913;1206;25313;-61
2022/11/30 12:32:04;;;;;;;;;8.50;7.50;;;;;;;;114894;1203;25508;-68
2022/11/30 12:34:58;;;;;;;;;9.00;9.00;;;;;;;;114929;1193;25144;-62
2022/11/30 12:37:48;;;;;;;;;11.00;7.67;;;;;;;;114897;1203;25448;-67
2022/11/30 12:40:30;;;;;;;;;5.00;5.00;;;;;;;;114918;1203;25617;-60
2022/11/30 12:43:07;;;;;;;;;9.50;7.50;;;;;;;;114944;1200;25576;-60
2022/11/30 12:45:40;;;;;;;;;12.33;8.33;;;;;;;;114906;1208;25452;-58
2022/11/30 12:48:26;;;;;;;;;13.50;9.50;;;;;;;;114905;1200;25691;-55
2022/11/30 12:51:18;;;;;;;;;11.00;9.00;;;;;;;;114858;1201;25281;-63
2022/11/30 12:54:00;;;;;;;;;9.50;8.00;;;;;;;;114887;1208;25263;-56
2022/11/30 12:56:37;;;;;;;;;9.00;8.00;;;;;;;;114834;1208;24757;-60
2022/11/30 12:59:26;;;;;;;;;6.00;6.00;;;;;;;;114831;1200;24895;-58
2022/11/30 13:01:58;;;;;;;;;9.50;8.50;;;;;;;;114925;1203;24743;-58
2022/11/30 13:04:37;;;;;;;;;10.00;10.00;;;;;;;;114932;1206;24842;-59
2022/11/30 13:07:21;;;;;;;;;10.00;8.00;;;;;;;;114803;1203;24880;-56
2022/11/30 13:10:01;;;;;;;;;11.00;9.00;;;;;;;;114860;1200;25509;-57
2022/11/30 13:12:36;;;;;;;;;12.50;10.50;;;;;;;;114885;1203;25075;-57
2022/11/30 13:15:12;;;;;;;;;11.00;9.00;;;;;;;;114913;1208;25073;-56
2022/11/30 13:17:44;;;;;;;;;10.00;8.00;;;;;;;;114886;1204;24708;-56
2022/11/30 13:20:24;;;;;;;;;11.33;10.00;;;;;;;;114877;1200;24882;-56
2022/11/30 13:23:04;;;;;;;;;9.00;8.00;;;;;;;;114878;1203;24735;-56
2022/11/30 13:26:02;;;;;;;;;8.00;7.00;;;;;;;;114823;1200;25301;-56
2022/11/30 13:28:50;;;;;;;;;11.00;9.00;;;;;;;;114908;1206;24842;-56
2022/11/30 13:31:29;;;;;;;;;11.00;10.00;;;;;;;;114862;1208;25829;-57
2022/11/30 13:33:58;;;;;;;;;11.00;9.67;;;;;;;;114903;1200;25642;-57
2022/11/30 13:36:32;;;;;;;;;10.00;8.00;;;;;;;;114890;1196;25324;-56
2022/11/30 13:39:11;;;;;;;;;12.50;10.00;;;;;;;;114847;1203;25068;-56
2022/11/30 13:41:43;;;;;;;;;11.00;8.00;;;;;;;;114791;1196;25534;-57
2022/11/30 13:44:39;;;;;;;;;9.50;9.50;;;;;;;;114848;1208;25318;-59
2022/11/30 13:47:18;;;;;;;;;14.00;11.00;;;;;;;;114854;1200;25031;-57
2022/11/30 13:49:54;;;;;;;;;10.50;10.50;;;;;;;;114832;1204;25032;-62
2022/11/30 13:52:56;;;;;;;;;13.00;10.00;;;;;;;;114937;1203;25478;-62
2022/11/30 13:55:34;;;;;;;;;11.00;9.00;;;;;;;;114890;1203;25168;-61
2022/11/30 13:58:06;;;;;;;;;15.00;10.67;;;;;;;;114842;1197;25387;-59
2022/11/30 14:00:34;;;;;;;;;13.00;11.50;;;;;;;;114831;1206;25242;-59
2022/11/30 14:03:23;;;;;;;;;12.00;12.00;;;;;;;;114901;1203;25290;-61
2022/11/30 14:05:52;;;;;;;;;13.00;9.00;;;;;;;;114834;1195;25691;-63
2022/11/30 14:08:21;;;;;;;;;12.00;10.00;;;;;;;;114822;1206;25340;-67
2022/11/30 14:10:53;;;;;;;;;;;;;;;;;;114862;1203;25651;-65
2022/11/30 14:13:27;;;;;;;;;17.50;9.50;;;;;;;;114925;1199;25479;-64
2022/11/30 14:16:00;;;;;;;;;9.00;8.00;;;;;;;;114861;1200;25636;-64
2022/11/30 14:18:28;;;;;;;;;12.00;10.00;;;;;;;;114865;1205;25179;-62
2022/11/30 14:21:00;;;;;;;;;14.00;11.00;;;;;;;;114917;1203;24832;-61
2022/11/30 14:23:38;;;;;;;;;13.67;11.67;;;;;;;;114921;1206;25157;-61
2022/11/30 14:26:13;;;;;;;;;11.00;9.00;;;;;;;;114874;1208;24711;-60
2022/11/30 14:28:57;;;;;;;;;13.50;11.50;;;;;;;;114868;1205;24696;-60
2022/11/30 14:31:29;;;;;;;;;12.00;10.00;;;;;;;;114900;1200;25534;-61
2022/11/30 14:34:02;;;;;;;;;16.00;14.00;;;;;;;;114805;1201;25254;-60
2022/11/30 14:36:37;;;;;;;;;15.00;13.00;;;;;;;;114935;1203;25483;-60
2022/11/30 14:39:22;;;;;;;;;12.50;10.50;;;;;;;;114840;1200;24830;-61
2022/11/30 14:41:51;;;;;;;;;15.00;13.00;;;;;;;;114830;1200;25049;-61
2022/11/30 14:44:19;;;;;;;;;15.50;13.00;;;;;;;;114809;1204;26233;-60
2022/11/30 14:46:48;;;;;;;;;12.50;10.50;;;;;;;;114879;1200;25488;-61
2022/11/30 14:49:22;;;;;;;;;10.67;10.67;;;;;;;;114879;1200;25280;-63
2022/11/30 14:51:56;;;;;;;;;13.00;10.00;;;;;;;;114879;1199;25136;-64
2022/11/30 14:54:43;;;;;;;;;19.50;13.00;;;;;;;;114904;1206;25435;-64
2022/11/30 14:57:17;;;;;;;;;13.00;11.00;;;;;;;;114951;1201;25434;-61
2022/11/30 14:59:49;;;;;;;;;12.00;11.00;;;;;;;;114877;1199;24847;-57
2022/11/30 15:02:28;;;;;;;;;13.00;12.00;;;;;;;;114890;1203;24963;-57
2022/11/30 15:04:57;;;;;;;;;13.50;10.50;;;;;;;;114862;1200;25038;-59
2022/11/30 15:07:28;;;;;;;;;13.50;11.00;;;;;;;;114842;1200;24943;-56